sensor_id;sensor_type;location;lat;lon;timestamp;pressure;altitude;pressure_sealevel;temperature;humidity
5609;BME280;2826;51.354;9.588;2022-07-29T00:00:06;98278.75;;;18.69;44.17
5609;BME280;2826;51.354;9.588;2022-07-29T00:02:33;98286.38;;;18.72;44.04
5609;BME280;2826;51.354;9.588;2022-07-29T00:05:00;98279.47;;;18.71;44.06
5609;BME280;2826;51.354;9.588;2022-07-29T00:07:28;98276.94;;;18.70;44.28
5609;BME280;2826;51.354;9.588;2022-07-29T00:09:55;98282.19;;;18.70;44.59
5609;BME280;2826;51.354;9.588;2022-07-29T00:12:24;98275.38;;;18.67;44.58
5609;BME280;2826;51.354;9.588;2022-07-29T00:14:51;98272.03;;;18.65;44.35
5609;BME280;2826;51.354;9.588;2022-07-29T00:17:19;98246.75;;;18.51;44.39
5609;BME280;2826;51.354;9.588;2022-07-29T00:19:46;98265.22;;;18.62;44.71
5609;BME280;2826;51.354;9.588;2022-07-29T00:22:13;98266.38;;;18.58;44.64
5609;BME280;2826;51.354;9.588;2022-07-29T00:24:40;98266.78;;;18.52;45.14
5609;BME280;2826;51.354;9.588;2022-07-29T00:27:07;98240.69;;;18.37;45.05
5609;BME280;2826;51.354;9.588;2022-07-29T00:29:34;98255.78;;;18.47;45.06
5609;BME280;2826;51.354;9.588;2022-07-29T00:32:01;98260.13;;;18.48;45.18
5609;BME280;2826;51.354;9.588;2022-07-29T00:34:29;98252.34;;;18.46;45.58
5609;BME280;2826;51.354;9.588;2022-07-29T00:37:13;98248.34;;;18.40;45.51
5609;BME280;2826;51.354;9.588;2022-07-29T00:39:40;98239.97;;;18.35;45.31
5609;BME280;2826;51.354;9.588;2022-07-29T00:42:07;98243.53;;;18.34;45.66
5609;BME280;2826;51.354;9.588;2022-07-29T00:44:38;98240.78;;;18.36;45.87
5609;BME280;2826;51.354;9.588;2022-07-29T00:47:05;98233.78;;;18.36;45.91
5609;BME280;2826;51.354;9.588;2022-07-29T00:49:34;98223.72;;;18.30;45.86
5609;BME280;2826;51.354;9.588;2022-07-29T00:52:01;98216.88;;;18.27;46.44
5609;BME280;2826;51.354;9.588;2022-07-29T00:54:28;98217.41;;;18.20;46.34
5609;BME280;2826;51.354;9.588;2022-07-29T00:56:58;98212.50;;;18.15;47.02
5609;BME280;2826;51.354;9.588;2022-07-29T00:59:25;98220.81;;;18.09;47.17
5609;BME280;2826;51.354;9.588;2022-07-29T01:01:53;98213.13;;;18.06;47.04
5609;BME280;2826;51.354;9.588;2022-07-29T01:04:20;98219.84;;;17.97;47.78
5609;BME280;2826;51.354;9.588;2022-07-29T01:06:49;98159.56;;;17.58;47.62
5609;BME280;2826;51.354;9.588;2022-07-29T01:09:17;98214.69;;;17.95;47.85
5609;BME280;2826;51.354;9.588;2022-07-29T01:11:45;98225.19;;;17.95;47.51
5609;BME280;2826;51.354;9.588;2022-07-29T01:14:14;98219.94;;;17.95;47.62
5609;BME280;2826;51.354;9.588;2022-07-29T01:16:46;98216.09;;;17.88;47.86
5609;BME280;2826;51.354;9.588;2022-07-29T01:19:28;98221.22;;;17.76;48.56
5609;BME280;2826;51.354;9.588;2022-07-29T01:22:13;98218.09;;;17.71;48.40
5609;BME280;2826;51.354;9.588;2022-07-29T01:25:02;98213.03;;;17.68;48.57
5609;BME280;2826;51.354;9.588;2022-07-29T01:27:41;98210.75;;;17.63;48.75
5609;BME280;2826;51.354;9.588;2022-07-29T01:30:13;98169.09;;;17.33;49.16
5609;BME280;2826;51.354;9.588;2022-07-29T01:32:40;98213.34;;;17.50;49.55
5609;BME280;2826;51.354;9.588;2022-07-29T01:35:16;98209.16;;;17.48;49.88
5609;BME280;2826;51.354;9.588;2022-07-29T01:37:47;98204.75;;;17.48;49.67
5609;BME280;2826;51.354;9.588;2022-07-29T01:40:20;98194.69;;;17.42;50.22
5609;BME280;2826;51.354;9.588;2022-07-29T01:42:51;98199.28;;;17.39;50.40
5609;BME280;2826;51.354;9.588;2022-07-29T01:45:21;98155.13;;;17.19;50.04
5609;BME280;2826;51.354;9.588;2022-07-29T01:47:56;98195.72;;;17.40;49.92
5609;BME280;2826;51.354;9.588;2022-07-29T01:50:29;98196.66;;;17.39;49.97
5609;BME280;2826;51.354;9.588;2022-07-29T01:53:00;98184.41;;;17.39;49.75
5609;BME280;2826;51.354;9.588;2022-07-29T01:55:29;98179.91;;;17.41;49.96
5609;BME280;2826;51.354;9.588;2022-07-29T01:57:59;98184.94;;;17.44;49.89
5609;BME280;2826;51.354;9.588;2022-07-29T02:00:29;98186.81;;;17.42;49.79
5609;BME280;2826;51.354;9.588;2022-07-29T02:02:59;98186.28;;;17.37;49.83
5609;BME280;2826;51.354;9.588;2022-07-29T02:05:28;98183.66;;;17.37;50.36
5609;BME280;2826;51.354;9.588;2022-07-29T02:07:56;98179.28;;;17.37;50.58
5609;BME280;2826;51.354;9.588;2022-07-29T02:10:28;98181.81;;;17.39;50.58
5609;BME280;2826;51.354;9.588;2022-07-29T02:12:57;98160.41;;;17.32;50.55
5609;BME280;2826;51.354;9.588;2022-07-29T02:15:26;98173.00;;;17.40;50.25
5609;BME280;2826;51.354;9.588;2022-07-29T02:17:58;98165.31;;;17.37;50.10
5609;BME280;2826;51.354;9.588;2022-07-29T02:20:27;98166.28;;;17.36;50.43
5609;BME280;2826;51.354;9.588;2022-07-29T02:22:56;98153.03;;;17.24;50.40
5609;BME280;2826;51.354;9.588;2022-07-29T02:25:26;98167.22;;;17.35;50.55
5609;BME280;2826;51.354;9.588;2022-07-29T02:27:53;98164.50;;;17.36;50.78
5609;BME280;2826;51.354;9.588;2022-07-29T02:30:22;98169.41;;;17.41;50.47
5609;BME280;2826;51.354;9.588;2022-07-29T02:32:49;98171.09;;;17.42;50.19
5609;BME280;2826;51.354;9.588;2022-07-29T02:35:20;98170.06;;;17.45;50.02
5609;BME280;2826;51.354;9.588;2022-07-29T02:37:48;98174.25;;;17.47;49.64
5609;BME280;2826;51.354;9.588;2022-07-29T02:40:38;98161.03;;;17.49;49.79
5609;BME280;2826;51.354;9.588;2022-07-29T02:43:06;98158.31;;;17.50;49.61
5609;BME280;2826;51.354;9.588;2022-07-29T02:45:34;98173.09;;;17.52;49.89
5609;BME280;2826;51.354;9.588;2022-07-29T02:48:05;98162.72;;;17.50;49.53
5609;BME280;2826;51.354;9.588;2022-07-29T02:50:37;98160.19;;;17.48;49.84
5609;BME280;2826;51.354;9.588;2022-07-29T02:53:09;98157.69;;;17.47;49.79
5609;BME280;2826;51.354;9.588;2022-07-29T02:55:41;98165.03;;;17.42;49.92
5609;BME280;2826;51.354;9.588;2022-07-29T02:58:13;98170.38;;;17.40;49.65
5609;BME280;2826;51.354;9.588;2022-07-29T03:00:42;98165.22;;;17.39;50.10
5609;BME280;2826;51.354;9.588;2022-07-29T03:03:13;98160.59;;;17.29;50.36
5609;BME280;2826;51.354;9.588;2022-07-29T03:05:42;98160.00;;;17.26;50.49
5609;BME280;2826;51.354;9.588;2022-07-29T03:08:11;98154.31;;;17.19;50.90
5609;BME280;2826;51.354;9.588;2022-07-29T03:10:39;98150.94;;;17.17;51.61
5609;BME280;2826;51.354;9.588;2022-07-29T03:13:09;98144.13;;;17.14;51.65
5609;BME280;2826;51.354;9.588;2022-07-29T03:15:38;98143.31;;;17.14;51.55
5609;BME280;2826;51.354;9.588;2022-07-29T03:18:05;98139.00;;;17.13;51.48
5609;BME280;2826;51.354;9.588;2022-07-29T03:20:33;98148.66;;;17.12;51.42
5609;BME280;2826;51.354;9.588;2022-07-29T03:23:02;98140.91;;;17.10;51.56
5609;BME280;2826;51.354;9.588;2022-07-29T03:25:30;98139.22;;;17.09;51.19
5609;BME280;2826;51.354;9.588;2022-07-29T03:27:57;98135.84;;;17.07;51.34
5609;BME280;2826;51.354;9.588;2022-07-29T03:30:24;98147.28;;;17.06;51.55
5609;BME280;2826;51.354;9.588;2022-07-29T03:32:51;98150.00;;;17.05;51.12
5609;BME280;2826;51.354;9.588;2022-07-29T03:35:18;98152.25;;;16.96;51.49
5609;BME280;2826;51.354;9.588;2022-07-29T03:37:46;98155.47;;;16.87;52.05
5609;BME280;2826;51.354;9.588;2022-07-29T03:40:19;98155.69;;;16.84;52.09
5609;BME280;2826;51.354;9.588;2022-07-29T03:42:48;98157.38;;;16.85;52.13
5609;BME280;2826;51.354;9.588;2022-07-29T03:45:18;98158.09;;;16.87;52.08
5609;BME280;2826;51.354;9.588;2022-07-29T03:47:49;98153.63;;;16.89;52.06
5609;BME280;2826;51.354;9.588;2022-07-29T03:50:18;98148.25;;;16.91;52.44
5609;BME280;2826;51.354;9.588;2022-07-29T03:52:47;98148.16;;;16.92;52.12
5609;BME280;2826;51.354;9.588;2022-07-29T03:55:16;98146.28;;;16.94;52.00
5609;BME280;2826;51.354;9.588;2022-07-29T03:57:44;98147.13;;;16.95;51.90
5609;BME280;2826;51.354;9.588;2022-07-29T04:00:12;98146.81;;;17.00;51.57
5609;BME280;2826;51.354;9.588;2022-07-29T04:02:39;98154.47;;;17.03;52.02
5609;BME280;2826;51.354;9.588;2022-07-29T04:05:11;98156.81;;;17.07;51.94
5609;BME280;2826;51.354;9.588;2022-07-29T04:07:38;98160.19;;;17.09;52.08
5609;BME280;2826;51.354;9.588;2022-07-29T04:10:06;98159.22;;;17.10;51.92
5609;BME280;2826;51.354;9.588;2022-07-29T04:12:34;98154.81;;;17.11;52.61
5609;BME280;2826;51.354;9.588;2022-07-29T04:15:01;98172.94;;;17.14;51.92
5609;BME280;2826;51.354;9.588;2022-07-29T04:17:28;98184.72;;;17.21;52.13
5609;BME280;2826;51.354;9.588;2022-07-29T04:19:54;98187.94;;;17.12;52.69
5609;BME280;2826;51.354;9.588;2022-07-29T04:22:21;98200.41;;;17.08;53.68
5609;BME280;2826;51.354;9.588;2022-07-29T04:24:48;98189.44;;;17.02;53.23
5609;BME280;2826;51.354;9.588;2022-07-29T04:27:15;98190.41;;;17.01;53.51
5609;BME280;2826;51.354;9.588;2022-07-29T04:29:43;98183.41;;;17.01;53.75
5609;BME280;2826;51.354;9.588;2022-07-29T04:32:10;98182.34;;;17.04;53.97
5609;BME280;2826;51.354;9.588;2022-07-29T04:34:36;98185.53;;;17.09;54.37
5609;BME280;2826;51.354;9.588;2022-07-29T04:37:03;98180.09;;;17.12;54.55
5609;BME280;2826;51.354;9.588;2022-07-29T04:39:30;98177.38;;;17.14;55.15
5609;BME280;2826;51.354;9.588;2022-07-29T04:41:57;98172.22;;;17.12;55.15
5609;BME280;2826;51.354;9.588;2022-07-29T04:44:24;98170.66;;;17.09;55.05
5609;BME280;2826;51.354;9.588;2022-07-29T04:46:52;98180.91;;;17.13;54.32
5609;BME280;2826;51.354;9.588;2022-07-29T04:49:18;98173.72;;;17.16;54.70
5609;BME280;2826;51.354;9.588;2022-07-29T04:51:45;98172.22;;;17.12;54.69
5609;BME280;2826;51.354;9.588;2022-07-29T04:54:12;98180.09;;;17.12;54.42
5609;BME280;2826;51.354;9.588;2022-07-29T04:56:39;98184.19;;;17.16;54.63
5609;BME280;2826;51.354;9.588;2022-07-29T04:59:06;98185.53;;;17.22;54.67
5609;BME280;2826;51.354;9.588;2022-07-29T05:01:33;98189.31;;;17.18;54.35
5609;BME280;2826;51.354;9.588;2022-07-29T05:04:01;98195.72;;;17.14;55.17
5609;BME280;2826;51.354;9.588;2022-07-29T05:06:28;98191.63;;;17.22;55.62
5609;BME280;2826;51.354;9.588;2022-07-29T05:08:55;98183.78;;;17.35;54.61
5609;BME280;2826;51.354;9.588;2022-07-29T05:11:21;98173.94;;;17.52;54.72
5609;BME280;2826;51.354;9.588;2022-07-29T05:13:48;98168.25;;;17.71;54.31
5609;BME280;2826;51.354;9.588;2022-07-29T05:16:15;98165.59;;;17.84;53.47
5609;BME280;2826;51.354;9.588;2022-07-29T05:18:41;98174.44;;;17.96;52.99
5609;BME280;2826;51.354;9.588;2022-07-29T05:21:09;98172.63;;;17.97;52.59
5609;BME280;2826;51.354;9.588;2022-07-29T05:23:37;98168.00;;;18.00;52.82
5609;BME280;2826;51.354;9.588;2022-07-29T05:26:04;98159.53;;;18.10;52.63
5609;BME280;2826;51.354;9.588;2022-07-29T05:28:33;98163.56;;;18.27;51.82
5609;BME280;2826;51.354;9.588;2022-07-29T05:31:00;98159.41;;;18.36;51.83
5609;BME280;2826;51.354;9.588;2022-07-29T05:33:27;98160.56;;;18.45;51.08
5609;BME280;2826;51.354;9.588;2022-07-29T05:35:53;98160.56;;;18.45;51.50
5609;BME280;2826;51.354;9.588;2022-07-29T05:38:21;98160.66;;;18.43;50.46
5609;BME280;2826;51.354;9.588;2022-07-29T05:40:48;98170.97;;;18.46;50.37
5609;BME280;2826;51.354;9.588;2022-07-29T05:43:15;98169.91;;;18.49;50.47
5609;BME280;2826;51.354;9.588;2022-07-29T05:45:41;98165.25;;;18.52;49.99
5609;BME280;2826;51.354;9.588;2022-07-29T05:48:08;98162.06;;;18.60;50.06
5609;BME280;2826;51.354;9.588;2022-07-29T05:50:35;98164.00;;;18.70;50.25
5609;BME280;2826;51.354;9.588;2022-07-29T05:53:01;98153.88;;;18.76;50.21
5609;BME280;2826;51.354;9.588;2022-07-29T05:55:29;98159.88;;;18.78;49.42
5609;BME280;2826;51.354;9.588;2022-07-29T05:57:56;98152.69;;;18.80;50.44
5609;BME280;2826;51.354;9.588;2022-07-29T06:00:23;98157.63;;;18.85;50.00
5609;BME280;2826;51.354;9.588;2022-07-29T06:02:49;98161.94;;;18.86;49.88
5609;BME280;2826;51.354;9.588;2022-07-29T06:05:17;98159.91;;;18.90;49.81
5609;BME280;2826;51.354;9.588;2022-07-29T06:07:44;98170.66;;;18.87;50.51
5609;BME280;2826;51.354;9.588;2022-07-29T06:10:11;98167.00;;;18.76;49.52
5609;BME280;2826;51.354;9.588;2022-07-29T06:12:40;98169.50;;;18.66;50.09
5609;BME280;2826;51.354;9.588;2022-07-29T06:15:08;98165.31;;;18.64;50.78
5609;BME280;2826;51.354;9.588;2022-07-29T06:17:35;98170.69;;;18.62;51.47
5609;BME280;2826;51.354;9.588;2022-07-29T06:20:02;98144.41;;;18.38;51.31
5609;BME280;2826;51.354;9.588;2022-07-29T06:22:29;98169.59;;;18.40;52.17
5609;BME280;2826;51.354;9.588;2022-07-29T06:24:56;98162.59;;;18.41;52.04
5609;BME280;2826;51.354;9.588;2022-07-29T06:27:23;98166.41;;;18.48;52.29
5609;BME280;2826;51.354;9.588;2022-07-29T06:29:51;98159.69;;;18.57;51.73
5609;BME280;2826;51.354;9.588;2022-07-29T06:32:18;98161.50;;;18.68;51.64
5609;BME280;2826;51.354;9.588;2022-07-29T06:34:45;98166.09;;;18.77;52.34
5609;BME280;2826;51.354;9.588;2022-07-29T06:37:11;98169.38;;;18.92;51.49
5609;BME280;2826;51.354;9.588;2022-07-29T06:39:38;98173.94;;;19.02;51.47
5609;BME280;2826;51.354;9.588;2022-07-29T06:42:05;98171.34;;;19.13;50.97
5609;BME280;2826;51.354;9.588;2022-07-29T06:44:32;98171.63;;;19.22;49.96
5609;BME280;2826;51.354;9.588;2022-07-29T06:47:02;98179.91;;;19.40;49.92
5609;BME280;2826;51.354;9.588;2022-07-29T06:49:28;98182.06;;;19.46;49.41
5609;BME280;2826;51.354;9.588;2022-07-29T06:51:55;98184.94;;;19.54;48.58
5609;BME280;2826;51.354;9.588;2022-07-29T06:54:22;98185.66;;;19.56;48.98
5609;BME280;2826;51.354;9.588;2022-07-29T06:56:48;98183.38;;;19.63;47.83
5609;BME280;2826;51.354;9.588;2022-07-29T06:59:15;98191.63;;;19.70;47.21
5609;BME280;2826;51.354;9.588;2022-07-29T07:01:43;98201.72;;;19.76;47.14
5609;BME280;2826;51.354;9.588;2022-07-29T07:04:11;98212.94;;;19.78;46.94
5609;BME280;2826;51.354;9.588;2022-07-29T07:06:38;98216.41;;;19.79;46.37
5609;BME280;2826;51.354;9.588;2022-07-29T07:09:06;98221.69;;;19.79;45.81
5609;BME280;2826;51.354;9.588;2022-07-29T07:11:33;98217.84;;;19.83;46.19
5609;BME280;2826;51.354;9.588;2022-07-29T07:14:00;98225.75;;;19.83;46.03
5609;BME280;2826;51.354;9.588;2022-07-29T07:16:27;98235.31;;;19.84;46.01
5609;BME280;2826;51.354;9.588;2022-07-29T07:18:53;98235.69;;;19.91;46.30
5609;BME280;2826;51.354;9.588;2022-07-29T07:21:21;98239.16;;;19.91;45.42
5609;BME280;2826;51.354;9.588;2022-07-29T07:23:48;98240.94;;;19.91;46.08
5609;BME280;2826;51.354;9.588;2022-07-29T07:26:15;98239.63;;;19.96;46.86
5609;BME280;2826;51.354;9.588;2022-07-29T07:28:41;98238.47;;;20.01;47.18
5609;BME280;2826;51.354;9.588;2022-07-29T07:31:08;98243.97;;;20.09;46.80
5609;BME280;2826;51.354;9.588;2022-07-29T07:33:35;98244.31;;;20.04;46.98
5609;BME280;2826;51.354;9.588;2022-07-29T07:36:02;98240.13;;;20.02;46.59
5609;BME280;2826;51.354;9.588;2022-07-29T07:38:30;98231.38;;;19.90;47.18
5609;BME280;2826;51.354;9.588;2022-07-29T07:40:57;98244.03;;;19.96;47.71
5609;BME280;2826;51.354;9.588;2022-07-29T07:43:24;98233.63;;;19.94;48.16
5609;BME280;2826;51.354;9.588;2022-07-29T07:45:50;98238.78;;;19.96;48.03
5609;BME280;2826;51.354;9.588;2022-07-29T07:48:17;98246.25;;;20.02;47.94
5609;BME280;2826;51.354;9.588;2022-07-29T07:50:44;98246.38;;;20.01;48.37
5609;BME280;2826;51.354;9.588;2022-07-29T07:53:11;98234.13;;;20.00;49.84
5609;BME280;2826;51.354;9.588;2022-07-29T07:55:41;98230.47;;;20.02;49.56
5609;BME280;2826;51.354;9.588;2022-07-29T07:58:08;98234.38;;;19.96;50.50
5609;BME280;2826;51.354;9.588;2022-07-29T08:00:35;98223.72;;;19.87;51.12
5609;BME280;2826;51.354;9.588;2022-07-29T08:03:02;98229.94;;;19.85;49.97
5609;BME280;2826;51.354;9.588;2022-07-29T08:05:29;98225.97;;;19.80;49.69
5609;BME280;2826;51.354;9.588;2022-07-29T08:07:56;98222.50;;;19.79;51.42
5609;BME280;2826;51.354;9.588;2022-07-29T08:10:23;98214.97;;;19.75;51.49
5609;BME280;2826;51.354;9.588;2022-07-29T08:13:09;98212.94;;;19.67;53.54
5609;BME280;2826;51.354;9.588;2022-07-29T08:15:38;98203.00;;;19.59;57.18
5609;BME280;2826;51.354;9.588;2022-07-29T08:18:05;98199.16;;;19.52;57.71
5609;BME280;2826;51.354;9.588;2022-07-29T08:20:32;98197.84;;;19.46;58.89
5609;BME280;2826;51.354;9.588;2022-07-29T08:23:01;98187.53;;;19.31;61.25
5609;BME280;2826;51.354;9.588;2022-07-29T08:25:28;98206.44;;;19.37;63.62
5609;BME280;2826;51.354;9.588;2022-07-29T08:27:54;98196.84;;;19.24;63.32
5609;BME280;2826;51.354;9.588;2022-07-29T08:30:23;98192.84;;;19.07;63.56
5609;BME280;2826;51.354;9.588;2022-07-29T08:32:50;98193.41;;;18.99;63.19
5609;BME280;2826;51.354;9.588;2022-07-29T08:35:18;98190.22;;;18.83;64.81
5609;BME280;2826;51.354;9.588;2022-07-29T08:37:45;98192.06;;;18.69;65.34
5609;BME280;2826;51.354;9.588;2022-07-29T08:40:12;98179.16;;;18.66;66.82
5609;BME280;2826;51.354;9.588;2022-07-29T08:42:40;98168.16;;;18.61;67.29
5609;BME280;2826;51.354;9.588;2022-07-29T08:45:10;98168.47;;;18.56;67.03
5609;BME280;2826;51.354;9.588;2022-07-29T08:47:39;98168.38;;;18.58;66.17
5609;BME280;2826;51.354;9.588;2022-07-29T08:50:07;98172.16;;;18.53;67.13
5609;BME280;2826;51.354;9.588;2022-07-29T08:52:37;98170.50;;;18.52;66.51
5609;BME280;2826;51.354;9.588;2022-07-29T08:55:06;98173.13;;;18.52;65.77
5609;BME280;2826;51.354;9.588;2022-07-29T08:57:34;98166.41;;;18.48;65.81
5609;BME280;2826;51.354;9.588;2022-07-29T09:00:05;98161.16;;;18.48;66.25
5609;BME280;2826;51.354;9.588;2022-07-29T09:02:36;98147.75;;;18.40;65.74
5609;BME280;2826;51.354;9.588;2022-07-29T09:05:07;98169.03;;;18.48;65.36
5609;BME280;2826;51.354;9.588;2022-07-29T09:07:35;98169.78;;;18.50;66.30
5609;BME280;2826;51.354;9.588;2022-07-29T09:10:04;98169.44;;;18.55;65.28
5609;BME280;2826;51.354;9.588;2022-07-29T09:12:31;98170.78;;;18.61;64.97
5609;BME280;2826;51.354;9.588;2022-07-29T09:14:57;98168.19;;;18.72;64.16
5609;BME280;2826;51.354;9.588;2022-07-29T09:17:40;98139.66;;;18.67;63.79
5609;BME280;2826;51.354;9.588;2022-07-29T09:20:11;98177.75;;;18.98;63.53
5609;BME280;2826;51.354;9.588;2022-07-29T09:22:38;98181.75;;;19.15;64.65
5609;BME280;2826;51.354;9.588;2022-07-29T09:25:06;98161.72;;;19.37;63.71
5609;BME280;2826;51.354;9.588;2022-07-29T09:27:33;98166.44;;;19.79;61.91
5609;BME280;2826;51.354;9.588;2022-07-29T09:30:01;98171.56;;;20.26;61.62
5609;BME280;2826;51.354;9.588;2022-07-29T09:32:30;98176.00;;;20.70;60.40
5609;BME280;2826;51.354;9.588;2022-07-29T09:35:21;98177.16;;;21.10;57.32
5609;BME280;2826;51.354;9.588;2022-07-29T09:37:48;98175.09;;;21.35;54.96
5609;BME280;2826;51.354;9.588;2022-07-29T09:40:17;98172.56;;;21.54;53.83
5609;BME280;2826;51.354;9.588;2022-07-29T09:42:45;98166.38;;;21.65;51.70
5609;BME280;2826;51.354;9.588;2022-07-29T09:45:13;98173.06;;;21.70;51.11
5609;BME280;2826;51.354;9.588;2022-07-29T09:47:52;98166.75;;;21.82;52.25
5609;BME280;2826;51.354;9.588;2022-07-29T09:50:21;98167.75;;;21.91;51.66
5609;BME280;2826;51.354;9.588;2022-07-29T09:52:50;98163.47;;;22.00;51.01
5609;BME280;2826;51.354;9.588;2022-07-29T09:55:19;98170.31;;;22.12;48.48
5609;BME280;2826;51.354;9.588;2022-07-29T09:57:46;98162.97;;;22.16;47.75
5609;BME280;2826;51.354;9.588;2022-07-29T10:00:15;98153.94;;;22.18;47.25
5609;BME280;2826;51.354;9.588;2022-07-29T10:02:45;98162.38;;;22.63;47.10
5609;BME280;2826;51.354;9.588;2022-07-29T10:05:21;98171.69;;;23.07;46.09
5609;BME280;2826;51.354;9.588;2022-07-29T10:07:51;98159.47;;;23.54;44.46
5609;BME280;2826;51.354;9.588;2022-07-29T10:10:22;98155.13;;;24.00;44.26
5609;BME280;2826;51.354;9.588;2022-07-29T10:12:51;98156.19;;;24.36;42.68
5609;BME280;2826;51.354;9.588;2022-07-29T10:15:18;98159.16;;;24.69;40.93
5609;BME280;2826;51.354;9.588;2022-07-29T10:17:46;98129.19;;;24.87;41.53
5609;BME280;2826;51.354;9.588;2022-07-29T10:20:13;98147.78;;;25.40;41.55
5609;BME280;2826;51.354;9.588;2022-07-29T10:22:41;98146.16;;;25.74;40.47
5609;BME280;2826;51.354;9.588;2022-07-29T10:25:10;98146.59;;;25.95;39.01
5609;BME280;2826;51.354;9.588;2022-07-29T10:27:37;98143.84;;;25.79;37.32
5609;BME280;2826;51.354;9.588;2022-07-29T10:30:05;98151.38;;;25.57;37.75
5609;BME280;2826;51.354;9.588;2022-07-29T10:32:46;98138.09;;;25.30;38.62
5609;BME280;2826;51.354;9.588;2022-07-29T10:35:24;98152.63;;;25.18;39.01
5609;BME280;2826;51.354;9.588;2022-07-29T10:38:20;98153.63;;;24.99;38.00
5609;BME280;2826;51.354;9.588;2022-07-29T10:40:59;98150.09;;;24.90;38.38
5609;BME280;2826;51.354;9.588;2022-07-29T10:43:48;98144.78;;;24.90;38.62
5609;BME280;2826;51.354;9.588;2022-07-29T10:46:15;98148.47;;;24.97;38.48
5609;BME280;2826;51.354;9.588;2022-07-29T10:49:07;98149.13;;;25.17;38.92
5609;BME280;2826;51.354;9.588;2022-07-29T10:52:03;98144.78;;;25.35;38.62
5609;BME280;2826;51.354;9.588;2022-07-29T10:54:46;98120.13;;;25.24;38.25
5609;BME280;2826;51.354;9.588;2022-07-29T10:57:20;98155.38;;;25.61;37.73
5609;BME280;2826;51.354;9.588;2022-07-29T10:59:49;98146.81;;;25.76;37.30
5609;BME280;2826;51.354;9.588;2022-07-29T11:02:42;98145.09;;;26.09;36.97
5609;BME280;2826;51.354;9.588;2022-07-29T11:05:11;98131.75;;;26.28;36.17
5609;BME280;2826;51.354;9.588;2022-07-29T11:10:28;98137.44;;;26.66;35.36
5609;BME280;2826;51.354;9.588;2022-07-29T11:12:55;98128.00;;;26.97;34.86
5609;BME280;2826;51.354;9.588;2022-07-29T11:15:22;98141.25;;;27.30;34.88
5609;BME280;2826;51.354;9.588;2022-07-29T11:18:06;98130.72;;;27.53;33.40
5609;BME280;2826;51.354;9.588;2022-07-29T11:20:34;98089.41;;;27.66;33.21
5609;BME280;2826;51.354;9.588;2022-07-29T11:23:17;98128.69;;;28.04;32.52
5609;BME280;2826;51.354;9.588;2022-07-29T11:28:48;98119.31;;;28.16;31.93
5609;BME280;2826;51.354;9.588;2022-07-29T11:31:19;98117.81;;;28.46;32.18
5609;BME280;2826;51.354;9.588;2022-07-29T11:33:46;98123.72;;;28.56;30.34
5609;BME280;2826;51.354;9.588;2022-07-29T11:36:14;98127.84;;;28.82;30.58
5609;BME280;2826;51.354;9.588;2022-07-29T11:38:41;98121.31;;;29.08;30.02
5609;BME280;2826;51.354;9.588;2022-07-29T11:41:25;98131.75;;;29.18;29.68
5609;BME280;2826;51.354;9.588;2022-07-29T11:43:56;98128.78;;;29.28;29.54
5609;BME280;2826;51.354;9.588;2022-07-29T11:46:44;98117.69;;;29.54;28.82
5609;BME280;2826;51.354;9.588;2022-07-29T11:49:12;98113.88;;;29.79;28.48
5609;BME280;2826;51.354;9.588;2022-07-29T11:51:39;98108.13;;;30.12;27.98
5609;BME280;2826;51.354;9.588;2022-07-29T11:54:11;98108.91;;;30.28;27.84
5609;BME280;2826;51.354;9.588;2022-07-29T11:56:42;98106.94;;;30.36;27.81
5609;BME280;2826;51.354;9.588;2022-07-29T11:59:11;98104.56;;;30.48;27.14
5609;BME280;2826;51.354;9.588;2022-07-29T12:01:51;98110.59;;;30.72;27.37
5609;BME280;2826;51.354;9.588;2022-07-29T12:04:18;98109.53;;;30.95;27.17
5609;BME280;2826;51.354;9.588;2022-07-29T12:06:49;98102.34;;;31.02;26.59
5609;BME280;2826;51.354;9.588;2022-07-29T12:09:16;98099.66;;;31.02;26.08
5609;BME280;2826;51.354;9.588;2022-07-29T12:11:46;98101.78;;;31.07;26.09
5609;BME280;2826;51.354;9.588;2022-07-29T12:14:26;98095.63;;;31.13;27.14
5609;BME280;2826;51.354;9.588;2022-07-29T12:16:53;98095.25;;;31.16;25.96
5609;BME280;2826;51.354;9.588;2022-07-29T12:19:19;98102.56;;;31.01;26.08
5609;BME280;2826;51.354;9.588;2022-07-29T12:21:48;98102.00;;;31.12;25.78
5609;BME280;2826;51.354;9.588;2022-07-29T12:24:15;98064.59;;;30.69;25.25
5609;BME280;2826;51.354;9.588;2022-07-29T12:26:51;98094.53;;;30.72;25.53
5609;BME280;2826;51.354;9.588;2022-07-29T12:29:18;98085.78;;;30.42;26.12
5609;BME280;2826;51.354;9.588;2022-07-29T12:31:45;98099.63;;;30.45;26.25
5609;BME280;2826;51.354;9.588;2022-07-29T12:34:15;98095.47;;;30.21;26.37
5609;BME280;2826;51.354;9.588;2022-07-29T12:36:42;98092.06;;;30.12;26.57
5609;BME280;2826;51.354;9.588;2022-07-29T12:39:10;98079.19;;;30.01;27.01
5609;BME280;2826;51.354;9.588;2022-07-29T12:41:38;98085.19;;;29.88;27.57
5609;BME280;2826;51.354;9.588;2022-07-29T12:44:06;98060.09;;;29.67;27.83
5609;BME280;2826;51.354;9.588;2022-07-29T12:46:33;98079.69;;;29.74;27.50
5609;BME280;2826;51.354;9.588;2022-07-29T12:49:00;98074.28;;;29.37;27.87
5609;BME280;2826;51.354;9.588;2022-07-29T12:51:31;98067.88;;;29.83;28.54
5609;BME280;2826;51.354;9.588;2022-07-29T12:54:04;98073.63;;;30.39;28.06
5609;BME280;2826;51.354;9.588;2022-07-29T12:56:31;98072.09;;;30.73;26.88
5609;BME280;2826;51.354;9.588;2022-07-29T12:58:58;98065.66;;;30.96;26.53
5609;BME280;2826;51.354;9.588;2022-07-29T13:01:26;98057.19;;;31.21;25.99
5609;BME280;2826;51.354;9.588;2022-07-29T13:03:55;98056.09;;;31.51;26.44
5609;BME280;2826;51.354;9.588;2022-07-29T13:06:37;98051.38;;;31.60;25.96
5609;BME280;2826;51.354;9.588;2022-07-29T13:09:07;98048.19;;;31.85;25.42
5609;BME280;2826;51.354;9.588;2022-07-29T13:11:37;98049.47;;;31.89;25.12
5609;BME280;2826;51.354;9.588;2022-07-29T13:14:06;98057.13;;;32.19;25.31
5609;BME280;2826;51.354;9.588;2022-07-29T13:16:35;98054.72;;;32.44;24.71
5609;BME280;2826;51.354;9.588;2022-07-29T13:19:05;98049.75;;;32.75;24.41
5609;BME280;2826;51.354;9.588;2022-07-29T13:21:32;98051.19;;;33.05;24.00
5609;BME280;2826;51.354;9.588;2022-07-29T13:23:59;98023.03;;;33.21;23.70
5609;BME280;2826;51.354;9.588;2022-07-29T13:26:26;98043.66;;;33.34;22.56
5609;BME280;2826;51.354;9.588;2022-07-29T13:28:53;98036.19;;;33.43;23.05
5609;BME280;2826;51.354;9.588;2022-07-29T13:31:20;98041.53;;;33.56;23.07
5609;BME280;2826;51.354;9.588;2022-07-29T13:33:48;98038.94;;;33.22;22.91
5609;BME280;2826;51.354;9.588;2022-07-29T13:36:15;98037.72;;;32.98;22.90
5609;BME280;2826;51.354;9.588;2022-07-29T13:38:43;98038.16;;;32.81;23.50